CDT,Max TemperatureF,Mean TemperatureF,Min TemperatureF,Max Dew PointF,MeanDew PointF,Min DewpointF,Max Humidity, Mean Humidity, Min Humidity, Max Sea Level PressureIn, Mean Sea Level PressureIn, Min Sea Level PressureIn, Max VisibilityMiles, Mean VisibilityMiles, Min VisibilityMiles, Max Wind SpeedMPH, Mean Wind SpeedMPH, Max Gust SpeedMPH,PrecipitationIn, CloudCover, Events, WindDirDegrees
2013-3-1,44,37,30,34,31,27,100,82,61,30.34,30.27,30.23,10,9,4,21,9,37,0.00,3,,347
2013-3-2,51,38,26,32,28,25,100,69,44,30.41,30.32,30.20,10,10,10,13,7,17,0.00,0,,343
2013-3-3,71,53,35,41,34,28,75,52,33,30.19,29.94,29.65,10,10,10,22,12,31,0.00,0,,177
2013-3-4,73,60,46,46,42,37,82,52,36,30.00,29.67,29.55,10,10,10,30,15,39,0.00,0,,272
2013-3-5,51,43,35,41,30,23,100,62,41,30.41,30.30,30.04,10,10,7,31,18,41,0.01,1,Rain,335
2013-3-6,55,42,30,28,27,25,86,55,33,30.47,30.35,30.20,10,10,10,10,5,,0.00,0,,87
2013-3-7,71,56,41,37,32,27,65,43,27,30.21,30.14,30.06,10,10,10,22,11,30,0.00,0,,155
2013-3-8,60,56,53,50,45,34,72,64,44,30.16,30.07,29.95,10,10,10,23,14,29,0.00,5,,157
2013-3-9,64,58,53,63,56,48,100,91,63,29.95,29.79,29.66,10,8,0,22,12,29,0.01,7,Fog-Rain-Thunderstorm,164
2013-3-10,59,47,35,57,38,32,100,82,63,30.09,29.90,29.67,10,10,10,21,13,33,0.00,7,Rain,305
2013-3-11,55,44,32,32,30,27,100,64,35,30.09,30.04,29.99,10,10,10,15,7,18,0.00,1,,311
2013-3-12,60,48,35,43,35,27,87,58,39,30.36,30.21,30.03,10,10,10,13,5,16,0.00,1,,19
2013-3-13,64,48,33,36,33,28,93,55,32,30.48,30.40,30.33,10,10,10,12,3,16,0.00,1,,127
2013-3-14,80,62,44,48,41,30,62,48,30,30.34,30.23,30.13,10,10,10,17,10,22,0.00,0,,194
2013-3-15,82,70,59,52,49,46,67,48,32,30.14,29.95,29.81,10,10,10,23,11,29,0.00,0,,201
2013-3-16,80,68,53,55,51,43,68,53,39,29.83,29.77,29.71,10,10,10,21,11,26,0.00,1,,175
2013-3-17,53,48,42,45,43,39,100,90,67,29.86,29.80,29.71,10,8,2,16,10,28,0.00,6,,4
2013-3-18,64,53,42,45,39,30,100,70,32,30.06,29.91,29.68,10,8,3,20,8,24,0.00,3,Thunderstorm,16
2013-3-19,62,50,37,39,34,30,87,52,32,30.25,30.11,30.01,10,10,10,16,4,23,0.00,0,,100
2013-3-20,59,47,35,37,34,32,93,60,39,30.39,30.25,30.06,10,10,10,13,5,16,0.00,0,,40
2013-3-21,57,50,42,43,37,32,81,64,54,30.05,29.80,29.63,10,10,10,23,13,33,0.00,4,Rain-Thunderstorm,128
2013-3-22,48,44,41,43,41,37,100,87,76,29.92,29.85,29.72,10,9,2,17,10,24,0.00,8,Rain,43
2013-3-23,44,42,39,45,43,39,100,98,87,29.90,29.83,29.74,10,5,1,20,7,,0.00,8,Rain-Thunderstorm,32
2013-3-24,46,39,32,39,30,23,100,74,40,30.23,30.06,29.87,10,10,5,32,19,39,0.00,4,Snow,330
2013-3-25,46,39,32,27,23,19,80,59,37,30.41,30.31,30.22,10,10,10,29,11,34,0.00,0,,335
2013-3-26,55,40,26,28,24,21,80,55,31,30.47,30.38,30.26,10,10,10,13,2,,0.00,0,,189
2013-3-27,71,56,41,43,34,27,61,45,33,30.26,30.16,30.07,10,10,10,26,14,36,0.00,0,,173
2013-3-28,77,64,51,57,49,39,77,61,47,30.18,30.12,30.06,10,10,10,18,12,25,0.00,2,,169
2013-3-29,73,66,59,63,60,55,100,83,69,30.16,30.10,30.04,10,10,10,22,10,29,0.00,4,Rain-Thunderstorm,170
2013-3-30,82,70,59,63,61,59,100,77,48,30.05,29.96,29.86,10,10,7,16,9,18,0.00,3,Rain-Thunderstorm,181
2013-3-31,73,64,55,63,51,43,100,68,38,30.03,29.98,29.90,10,10,7,26,8,36,0.00,2,Rain-Thunderstorm,1